KOTG

Worthington Municipal Airport

Worthington, Minnesota, USA
METAR KOTG 151856Z AUTO 35011KT 10SM CLR M13/M17 A3008 RMK AO2 SLP231 T11331172 FZRANO
Observed Flight Rules
Feb-15 @ 18:56 UTC (9 minutes ago) Visual Flight Rules
Wind Visibility Clouds
350° at 11 knots 10 miles
  • Clear skies
Temperatures Readings
Current -13°C / 9°F
Dewpoint -17°C / 1°F
Humidity 72%
Altimeter 30.08" Hg
Pressure 1023.1 hPa
Elevation 480
METAR KOTG 151856Z AUTO 35011KT 10SM CLR M13/M17 A3008 RMK AO2 SLP231 T11331172 FZRANO
Observed Flight Rules
Feb-15 @ 18:56 UTC
(9 minutes ago)
VFR
Wind Visibility
350° at 11 knots 10 miles
Clouds
  • Clear skies
Temperature Dewpoint
-13°C / 9°F -17°C / 1°F
Humidity Altimeter Pressure
72% 30.08" Hg 1023.1 hPa